SWR161 RJAA-LSZH
Flight info
| Callsign | SWR161 |
|---|---|
| Flight time | N/A |
| Altitude | 29000 |
| Route | GULBO Y808 NOLAX Y812 ADNAP OTR5 KALNA/N0492F310 4345N16000E 4537N16535E 4600N16604E/N0493F320 4546N16558E/N0495F310 DCT WALLT DCT EPLOS/N0492F330 DCT JUJXI DCT 70N166W 75N158W DCT NAMWE/N0492F350 DCT PELRI/M084F350 DCT 80N018W 75N007W 70N000W/N0484F350 DCT KOTIV/N0479F370 DCT TUXIL DCT OMIMA DCT ASBON DCT TUSUK DCT LAMGO/N0486F270 T721 RILAX |
| Aircraft | B77W/H-SDE1E2E3FGHIJ2J3J4J5M1RWXY/LB1D1 |
Departure
| Time | N/A |
|---|---|
| Airport | Narita International Airport (RJAA) |
Arrival
| Time | 2026-04-26 10:32 |
|---|---|
| Airport | Zürich Airport (LSZH) |
| Time | Latitude | Longitude | Altitude | Speed | Heading |
|---|---|---|---|---|---|
| 2026-04-26 09:16 | 56.54867 | 6.23658 | 35345 ft | 491 kts | 176° |
| 2026-04-26 09:17 | 56.48068 | 6.25382 | 35463 ft | 495 kts | 175° |
| 2026-04-26 09:17 | 56.44655 | 6.26246 | 35684 ft | 494 kts | 175° |
| 2026-04-26 09:17 | 56.41254 | 6.27107 | 35899 ft | 493 kts | 175° |
| 2026-04-26 09:17 | 56.37865 | 6.27963 | 36177 ft | 491 kts | 175° |
| 2026-04-26 09:18 | 56.34522 | 6.28806 | 36392 ft | 491 kts | 175° |
| 2026-04-26 09:18 | 56.31132 | 6.29658 | 36579 ft | 492 kts | 175° |
| 2026-04-26 09:18 | 56.27738 | 6.30509 | 36782 ft | 492 kts | 175° |
| 2026-04-26 09:18 | 56.24346 | 6.31359 | 37022 ft | 492 kts | 176° |
| 2026-04-26 09:19 | 56.20951 | 6.32207 | 37220 ft | 493 kts | 175° |
| 2026-04-26 09:19 | 56.14139 | 6.33905 | 37330 ft | 494 kts | 175° |
| 2026-04-26 09:20 | 56.07376 | 6.35589 | 37338 ft | 488 kts | 175° |
| 2026-04-26 09:20 | 56.00705 | 6.37242 | 37344 ft | 486 kts | 176° |
| 2026-04-26 09:21 | 55.93998 | 6.38896 | 37353 ft | 485 kts | 176° |
| 2026-04-26 09:21 | 55.87307 | 6.40540 | 37350 ft | 486 kts | 176° |
| 2026-04-26 09:22 | 55.80602 | 6.42182 | 37350 ft | 487 kts | 176° |
| 2026-04-26 09:22 | 55.73881 | 6.43823 | 37352 ft | 488 kts | 176° |
| 2026-04-26 09:23 | 55.67136 | 6.45464 | 37354 ft | 489 kts | 176° |
| 2026-04-26 09:23 | 55.60431 | 6.47090 | 37336 ft | 490 kts | 175° |
| 2026-04-26 09:24 | 55.53673 | 6.48724 | 37348 ft | 489 kts | 176° |
| 2026-04-26 09:24 | 55.46919 | 6.50351 | 37350 ft | 489 kts | 176° |
| 2026-04-26 09:25 | 55.40165 | 6.51972 | 37348 ft | 489 kts | 176° |
| 2026-04-26 09:25 | 55.33461 | 6.53576 | 37338 ft | 488 kts | 175° |
| 2026-04-26 09:26 | 55.26719 | 6.55183 | 37359 ft | 487 kts | 176° |
| 2026-04-26 09:26 | 55.20000 | 6.56779 | 37356 ft | 487 kts | 176° |
| 2026-04-26 09:27 | 55.13283 | 6.58370 | 37352 ft | 486 kts | 176° |
| 2026-04-26 09:27 | 55.06578 | 6.59952 | 37343 ft | 486 kts | 176° |
| 2026-04-26 09:28 | 54.99922 | 6.61518 | 37351 ft | 485 kts | 176° |
| 2026-04-26 09:28 | 54.93218 | 6.63122 | 37362 ft | 485 kts | 175° |
| 2026-04-26 09:29 | 54.86508 | 6.64747 | 37363 ft | 486 kts | 175° |
| 2026-04-26 09:29 | 54.79806 | 6.66363 | 37348 ft | 485 kts | 175° |
| 2026-04-26 09:30 | 54.73157 | 6.67958 | 37361 ft | 485 kts | 175° |
| 2026-04-26 09:30 | 54.66461 | 6.69556 | 37365 ft | 485 kts | 175° |
| 2026-04-26 09:31 | 54.59770 | 6.71147 | 37363 ft | 485 kts | 175° |
| 2026-04-26 09:31 | 54.53073 | 6.72734 | 37357 ft | 485 kts | 175° |
| 2026-04-26 09:32 | 54.46372 | 6.74318 | 37367 ft | 485 kts | 175° |
| 2026-04-26 09:32 | 54.39729 | 6.75882 | 37360 ft | 485 kts | 175° |
| 2026-04-26 09:33 | 54.33039 | 6.77453 | 37364 ft | 485 kts | 175° |
| 2026-04-26 09:33 | 54.26356 | 6.79017 | 37359 ft | 484 kts | 175° |
| 2026-04-26 09:34 | 54.19674 | 6.80575 | 37367 ft | 484 kts | 175° |
| 2026-04-26 09:34 | 54.12997 | 6.82127 | 37366 ft | 484 kts | 175° |
| 2026-04-26 09:35 | 54.06332 | 6.83671 | 37367 ft | 483 kts | 175° |
| 2026-04-26 09:35 | 53.99672 | 6.85209 | 37366 ft | 483 kts | 175° |
| 2026-04-26 09:36 | 53.93013 | 6.86743 | 37364 ft | 483 kts | 175° |
| 2026-04-26 09:36 | 53.86353 | 6.88271 | 37364 ft | 483 kts | 175° |
| 2026-04-26 09:37 | 53.79729 | 6.89786 | 37359 ft | 483 kts | 175° |
| 2026-04-26 09:37 | 53.73065 | 6.91305 | 37360 ft | 482 kts | 175° |
| 2026-04-26 09:38 | 53.66403 | 6.92819 | 37357 ft | 482 kts | 175° |
| 2026-04-26 09:38 | 53.59748 | 6.94327 | 37354 ft | 482 kts | 175° |
| 2026-04-26 09:39 | 53.53094 | 6.95829 | 37333 ft | 482 kts | 175° |
| 2026-04-26 09:39 | 53.46483 | 6.97318 | 37346 ft | 482 kts | 175° |
| 2026-04-26 09:40 | 53.39832 | 6.98811 | 37372 ft | 481 kts | 175° |
| 2026-04-26 09:40 | 53.33191 | 7.00296 | 37369 ft | 481 kts | 175° |
| 2026-04-26 09:41 | 53.26546 | 7.01778 | 37364 ft | 481 kts | 175° |
| 2026-04-26 09:41 | 53.19907 | 7.03254 | 37360 ft | 481 kts | 175° |
| 2026-04-26 09:42 | 53.13254 | 7.04728 | 37353 ft | 481 kts | 175° |
| 2026-04-26 09:42 | 53.06648 | 7.06188 | 37343 ft | 481 kts | 175° |
| 2026-04-26 09:43 | 53.00007 | 7.07650 | 37337 ft | 481 kts | 175° |
| 2026-04-26 09:43 | 52.93370 | 7.09107 | 37335 ft | 481 kts | 175° |
| 2026-04-26 09:44 | 52.86732 | 7.10560 | 37340 ft | 481 kts | 175° |
| 2026-04-26 09:44 | 52.80091 | 7.12010 | 37341 ft | 481 kts | 175° |
| 2026-04-26 09:45 | 52.73455 | 7.13453 | 37338 ft | 481 kts | 175° |
| 2026-04-26 09:45 | 52.66825 | 7.14891 | 37344 ft | 480 kts | 175° |
| 2026-04-26 09:46 | 52.60235 | 7.16316 | 37343 ft | 480 kts | 175° |
| 2026-04-26 09:46 | 52.53606 | 7.17745 | 37334 ft | 480 kts | 175° |
| 2026-04-26 09:47 | 52.46980 | 7.19168 | 37340 ft | 480 kts | 175° |
| 2026-04-26 09:47 | 52.40355 | 7.20588 | 37342 ft | 480 kts | 175° |
| 2026-04-26 09:48 | 52.34839 | 7.21766 | 37346 ft | 480 kts | 175° |
| 2026-04-26 09:48 | 52.28202 | 7.23180 | 37336 ft | 480 kts | 175° |
| 2026-04-26 09:49 | 52.21568 | 7.24589 | 37331 ft | 480 kts | 175° |
| 2026-04-26 09:49 | 52.14942 | 7.25993 | 37351 ft | 480 kts | 175° |
| 2026-04-26 09:50 | 52.08313 | 7.27392 | 37355 ft | 480 kts | 175° |
| 2026-04-26 09:50 | 52.01719 | 7.28780 | 37342 ft | 481 kts | 174° |
| 2026-04-26 09:51 | 51.95076 | 7.30174 | 37340 ft | 481 kts | 175° |
| 2026-04-26 09:51 | 51.88425 | 7.31566 | 37338 ft | 481 kts | 175° |
| 2026-04-26 09:52 | 51.81771 | 7.32955 | 37337 ft | 481 kts | 174° |
| 2026-04-26 09:52 | 51.71860 | 7.35015 | 37341 ft | 481 kts | 174° |
| 2026-04-26 09:53 | 51.65215 | 7.36391 | 37330 ft | 481 kts | 174° |
| 2026-04-26 09:53 | 51.58572 | 7.37763 | 37332 ft | 481 kts | 174° |
| 2026-04-26 09:54 | 51.51926 | 7.39131 | 37321 ft | 481 kts | 174° |
| 2026-04-26 09:54 | 51.45282 | 7.40495 | 37322 ft | 481 kts | 174° |
| 2026-04-26 09:55 | 51.38671 | 7.41848 | 37322 ft | 482 kts | 174° |
| 2026-04-26 09:55 | 51.32014 | 7.43206 | 37309 ft | 482 kts | 174° |
| 2026-04-26 09:56 | 51.25353 | 7.44561 | 37313 ft | 483 kts | 174° |
| 2026-04-26 09:56 | 51.18669 | 7.45917 | 37308 ft | 483 kts | 174° |
| 2026-04-26 09:57 | 51.11993 | 7.47268 | 37307 ft | 483 kts | 174° |
| 2026-04-26 09:57 | 51.05356 | 7.48608 | 37304 ft | 484 kts | 174° |
| 2026-04-26 09:58 | 50.98671 | 7.49952 | 37310 ft | 484 kts | 174° |
| 2026-04-26 09:58 | 50.91990 | 7.51292 | 37303 ft | 484 kts | 174° |
| 2026-04-26 09:59 | 50.85301 | 7.52630 | 37304 ft | 484 kts | 174° |
| 2026-04-26 09:59 | 50.78659 | 7.53955 | 37299 ft | 484 kts | 174° |
| 2026-04-26 10:00 | 50.72124 | 7.56434 | 37294 ft | 486 kts | 160° |
| 2026-04-26 10:00 | 50.66142 | 7.61432 | 37305 ft | 488 kts | 148° |
| 2026-04-26 10:01 | 50.60494 | 7.67407 | 37292 ft | 488 kts | 147° |
| 2026-04-26 10:01 | 50.54836 | 7.73349 | 37302 ft | 489 kts | 148° |
| 2026-04-26 10:02 | 50.49148 | 7.79223 | 37306 ft | 489 kts | 148° |
| 2026-04-26 10:02 | 50.43440 | 7.85071 | 37309 ft | 490 kts | 148° |
| 2026-04-26 10:03 | 50.37726 | 7.90909 | 37304 ft | 490 kts | 149° |
| 2026-04-26 10:03 | 50.32011 | 7.96736 | 37308 ft | 490 kts | 149° |
| 2026-04-26 10:04 | 50.26287 | 8.02556 | 37304 ft | 491 kts | 149° |
| 2026-04-26 10:04 | 50.20557 | 8.08369 | 37303 ft | 490 kts | 149° |
| 2026-04-26 10:05 | 50.14819 | 8.13985 | 37302 ft | 489 kts | 154° |
| 2026-04-26 10:05 | 50.08593 | 8.18129 | 37299 ft | 485 kts | 164° |
| 2026-04-26 10:06 | 50.02164 | 8.21326 | 37302 ft | 485 kts | 165° |
| 2026-04-26 10:06 | 49.95737 | 8.24538 | 37308 ft | 485 kts | 164° |
| 2026-04-26 10:07 | 49.89319 | 8.27787 | 37270 ft | 485 kts | 164° |
| 2026-04-26 10:07 | 49.82888 | 8.31054 | 37277 ft | 485 kts | 164° |
| 2026-04-26 10:08 | 49.76517 | 8.34282 | 37272 ft | 485 kts | 164° |
| 2026-04-26 10:08 | 49.70103 | 8.37522 | 37272 ft | 484 kts | 164° |
| 2026-04-26 10:09 | 49.63702 | 8.40744 | 37260 ft | 484 kts | 165° |
| 2026-04-26 10:09 | 49.57301 | 8.43957 | 37291 ft | 483 kts | 165° |
| 2026-04-26 10:10 | 49.50897 | 8.47163 | 37293 ft | 483 kts | 165° |
| 2026-04-26 10:10 | 49.44498 | 8.50358 | 37296 ft | 483 kts | 165° |
| 2026-04-26 10:11 | 49.38105 | 8.53540 | 37292 ft | 483 kts | 165° |
| 2026-04-26 10:11 | 49.31748 | 8.56697 | 37280 ft | 483 kts | 165° |
| 2026-04-26 10:12 | 49.25357 | 8.59861 | 37273 ft | 483 kts | 165° |
| 2026-04-26 10:12 | 49.18947 | 8.63026 | 37232 ft | 483 kts | 165° |
| 2026-04-26 10:13 | 49.12552 | 8.66176 | 37240 ft | 483 kts | 165° |
| 2026-04-26 10:13 | 49.06142 | 8.69326 | 37258 ft | 483 kts | 165° |
| 2026-04-26 10:14 | 48.99801 | 8.72433 | 37072 ft | 477 kts | 165° |
| 2026-04-26 10:14 | 48.96665 | 8.73969 | 36681 ft | 470 kts | 165° |
| 2026-04-26 10:14 | 48.93549 | 8.75486 | 35903 ft | 472 kts | 166° |
| 2026-04-26 10:15 | 48.90351 | 8.76644 | 34959 ft | 474 kts | 174° |
| 2026-04-26 10:15 | 48.87062 | 8.77035 | 34014 ft | 475 kts | 182° |
| 2026-04-26 10:15 | 48.83766 | 8.76766 | 33112 ft | 472 kts | 191° |
| 2026-04-26 10:15 | 48.80551 | 8.75907 | 32443 ft | 466 kts | 193° |
| 2026-04-26 10:16 | 48.77375 | 8.74996 | 31879 ft | 460 kts | 193° |
| 2026-04-26 10:16 | 48.74236 | 8.74107 | 31321 ft | 455 kts | 193° |
| 2026-04-26 10:16 | 48.71130 | 8.73245 | 30767 ft | 451 kts | 193° |
| 2026-04-26 10:16 | 48.68051 | 8.72398 | 30134 ft | 448 kts | 193° |
| 2026-04-26 10:17 | 48.65032 | 8.71576 | 29444 ft | 445 kts | 192° |
| 2026-04-26 10:17 | 48.61989 | 8.70775 | 28822 ft | 442 kts | 192° |
| 2026-04-26 10:17 | 48.58968 | 8.69984 | 28216 ft | 438 kts | 192° |
| 2026-04-26 10:17 | 48.55972 | 8.69197 | 27645 ft | 435 kts | 192° |
| 2026-04-26 10:18 | 48.53004 | 8.68413 | 27072 ft | 432 kts | 192° |
| 2026-04-26 10:18 | 48.50053 | 8.67631 | 26486 ft | 429 kts | 192° |
| 2026-04-26 10:18 | 48.47125 | 8.66856 | 25941 ft | 426 kts | 192° |
| 2026-04-26 10:18 | 48.44209 | 8.66085 | 25409 ft | 424 kts | 192° |
| 2026-04-26 10:19 | 48.41313 | 8.65321 | 24879 ft | 421 kts | 192° |
| 2026-04-26 10:19 | 48.38429 | 8.64562 | 24364 ft | 419 kts | 192° |
| 2026-04-26 10:19 | 48.35579 | 8.63763 | 23836 ft | 411 kts | 193° |
| 2026-04-26 10:19 | 48.32803 | 8.62925 | 22843 ft | 405 kts | 194° |
| 2026-04-26 10:20 | 48.30047 | 8.62075 | 21740 ft | 404 kts | 193° |
| 2026-04-26 10:20 | 48.28328 | 8.61547 | 21092 ft | 403 kts | 193° |
| 2026-04-26 10:20 | 48.25038 | 8.60545 | 19964 ft | 399 kts | 193° |
| 2026-04-26 10:20 | 48.22363 | 8.59736 | 19099 ft | 395 kts | 193° |
| 2026-04-26 10:21 | 48.19683 | 8.58932 | 18217 ft | 391 kts | 193° |
| 2026-04-26 10:21 | 48.17028 | 8.58139 | 17291 ft | 386 kts | 193° |
| 2026-04-26 10:21 | 48.14413 | 8.57361 | 16442 ft | 381 kts | 192° |
| 2026-04-26 10:21 | 48.11828 | 8.56595 | 15585 ft | 376 kts | 192° |
| 2026-04-26 10:22 | 48.09277 | 8.55837 | 14801 ft | 371 kts | 192° |
| 2026-04-26 10:22 | 48.06765 | 8.55091 | 14212 ft | 362 kts | 192° |
| 2026-04-26 10:22 | 48.04350 | 8.54375 | 13788 ft | 346 kts | 192° |
| 2026-04-26 10:22 | 48.02020 | 8.53685 | 13239 ft | 336 kts | 192° |
| 2026-04-26 10:23 | 47.99754 | 8.53016 | 12715 ft | 327 kts | 192° |
| 2026-04-26 10:23 | 47.97551 | 8.52363 | 12192 ft | 319 kts | 192° |
| 2026-04-26 10:23 | 47.95392 | 8.51722 | 11686 ft | 312 kts | 192° |
| 2026-04-26 10:23 | 47.93319 | 8.51060 | 11202 ft | 306 kts | 195° |
| 2026-04-26 10:24 | 47.91284 | 8.50218 | 10749 ft | 301 kts | 197° |
| 2026-04-26 10:24 | 47.89298 | 8.49327 | 10269 ft | 297 kts | 197° |
| 2026-04-26 10:24 | 47.87314 | 8.48446 | 9798 ft | 299 kts | 197° |
| 2026-04-26 10:24 | 47.85307 | 8.47562 | 9362 ft | 299 kts | 197° |
| 2026-04-26 10:25 | 47.83343 | 8.46702 | 8925 ft | 291 kts | 196° |
| 2026-04-26 10:25 | 47.81408 | 8.45856 | 8438 ft | 286 kts | 196° |
| 2026-04-26 10:25 | 47.79508 | 8.45035 | 7914 ft | 283 kts | 196° |
| 2026-04-26 10:25 | 47.77629 | 8.44226 | 7372 ft | 280 kts | 196° |
| 2026-04-26 10:26 | 47.75764 | 8.43422 | 6886 ft | 277 kts | 195° |
| 2026-04-26 10:26 | 47.73918 | 8.42627 | 6358 ft | 275 kts | 195° |
| 2026-04-26 10:26 | 47.72108 | 8.41855 | 6044 ft | 265 kts | 194° |
| 2026-04-26 10:26 | 47.70404 | 8.41117 | 5852 ft | 252 kts | 194° |
| 2026-04-26 10:27 | 47.68746 | 8.40402 | 5549 ft | 244 kts | 196° |
| 2026-04-26 10:27 | 47.67146 | 8.39662 | 5087 ft | 239 kts | 194° |
| 2026-04-26 10:27 | 47.65544 | 8.39002 | 4606 ft | 239 kts | 194° |
| 2026-04-26 10:27 | 47.63950 | 8.38336 | 4426 ft | 236 kts | 195° |
| 2026-04-26 10:28 | 47.62398 | 8.37685 | 4276 ft | 227 kts | 194° |
| 2026-04-26 10:28 | 47.60895 | 8.37413 | 4129 ft | 214 kts | 168° |
| 2026-04-26 10:28 | 47.59642 | 8.38340 | 4011 ft | 191 kts | 141° |
| 2026-04-26 10:28 | 47.58567 | 8.39488 | 3965 ft | 186 kts | 139° |
| 2026-04-26 10:29 | 47.57605 | 8.40697 | 4003 ft | 184 kts | 135° |
| 2026-04-26 10:29 | 47.56683 | 8.41974 | 3750 ft | 174 kts | 134° |
| 2026-04-26 10:29 | 47.55828 | 8.43163 | 3548 ft | 163 kts | 134° |
| 2026-04-26 10:29 | 47.55031 | 8.44233 | 3308 ft | 146 kts | 134° |
| 2026-04-26 10:30 | 47.54293 | 8.45278 | 3092 ft | 147 kts | 134° |
| 2026-04-26 10:30 | 47.53555 | 8.46287 | 2964 ft | 147 kts | 134° |
| 2026-04-26 10:30 | 47.52792 | 8.47326 | 2779 ft | 150 kts | 133° |
| 2026-04-26 10:30 | 47.52026 | 8.48359 | 2510 ft | 146 kts | 132° |
| 2026-04-26 10:31 | 47.51291 | 8.49350 | 2265 ft | 141 kts | 133° |
| 2026-04-26 10:31 | 47.50574 | 8.50373 | 2222 ft | 146 kts | 134° |
| 2026-04-26 10:31 | 47.49836 | 8.51363 | 1906 ft | 141 kts | 132° |
| 2026-04-26 10:31 | 47.49120 | 8.52352 | 1713 ft | 140 kts | 136° |
| 2026-04-26 10:32 | 47.48417 | 8.53310 | 1521 ft | 137 kts | 134° |
| 2026-04-26 10:32 | 47.47731 | 8.54251 | 1411 ft | 126 kts | 132° |
| 2026-04-26 10:32 | 47.47165 | 8.55032 | 1407 ft | 94 kts | 137° |
| 2026-04-26 10:32 | 47.46777 | 8.55561 | 1412 ft | 45 kts | 139° |
| 2026-04-26 10:33 | 47.46516 | 8.55707 | 1408 ft | 29 kts | 169° |
| 2026-04-26 10:33 | 47.46373 | 8.55771 | 1411 ft | 21 kts | 144° |
| 2026-04-26 10:33 | 47.46286 | 8.55888 | 1412 ft | 9 kts | 139° |
| 2026-04-26 10:33 | 47.46235 | 8.55869 | 1409 ft | 9 kts | 248° |
| 2026-04-26 10:34 | 47.46237 | 8.55772 | 1403 ft | 10 kts | 276° |
| 2026-04-26 10:34 | 47.46221 | 8.55696 | 1407 ft | 9 kts | 214° |
| 2026-04-26 10:34 | 47.46180 | 8.55686 | 1404 ft | 4 kts | 186° |
| 2026-04-26 10:34 | 47.46173 | 8.55685 | 1402 ft | 2 kts | 186° |
| 2026-04-26 10:35 | 47.46166 | 8.55684 | 1402 ft | 0 kts | 186° |